Aérodrome :
LOGIN :

S'inscrire | Disclaimer

   EN    FR    IT 

 










Légende :    VFR   VFR Marginal   IFR   IFR Intensif   IFR Très Intensif
Visi : 
Plafond : 
>= 8 km
>= 3000ft
5 à 8 km
1000 à 3000 ft
1500m à 5 km
500 à 1000 ft
800 à 1500m
200 à 500 ft
< 800m
< 200 ft
Symboles :   Orages  Brouillard  Fortes neiges  Fortes précipitations  Vent > 20 kt
SIGMETs :   Divers  Orages  Givrage  Turbulence  Onde Orograph.  Cendres Volcan.






- Altitude de l'aérodrome : 31 ft
- Code IATA : INV


EGPE - Inverness

DERNIER METAR :
  • 291220Z 22006KT 9999 FEW025 06/04 Q1023

METARs EXPIRÉS :
  • 291150Z 21007KT 9999 FEW030 06/04 Q1023
  • 291120Z 03001KT 9999 FEW029 03/02 Q1024
  • 291050Z VRB01KT 9999 SCT026 02/01 Q1024
  • 291020Z 00000KT 9999 FEW006 SCT029 02/01 Q1024
  • 290950Z 22004KT 9999 FEW006 SCT028 01/00 Q1025

TAF TAF EGPE
Valide du 29 à 12h jusqu'au 29 à 21h UTC


291059Z 2912/2921 22008KT 9999 SCT025
PROB30
TEMPO 2918/2921 23015G25KT
ATIS : +44 1667 464 255



MET'MAP, la Météo Aéronautique d'un coup d'oeil ! - Copyright ORBIFLY Décembre 2007 - Disclaimer

ORBIFLY MET'MAP TEAM :

Programmation & Développement : Alexandra Zaïnal
Sur une idée originale de : Baudouin d'Aumeries
Assistance à la programmation : Marc-Olivier Méhu
Soutien technique & logistique : Manuel Goepfert

Contact : metmap@orbifly.com




SOURCES & CREDITS :

   NOAA